Time;durP1;ratioP1;P1;durP2;ratioP2;P2;SDS_P1;SDS_P2;PMS_P1;PMS_P2;Temp;Humidity;BMP_temperature;BMP_pressure;BME280_temperature;BME280_humidity;BME280_pressure;Samples;Min_cycle;Max_cycle;Signal;HPM_P1;HPM_P2
2022/04/20 00:01:16;;;;;;;3.00;2.80;;;;;;;;;;5082110;28;20433;-68
2022/04/20 00:03:42;;;;;;;4.43;3.03;;;;;;;;;;5084309;28;20192;-68
2022/04/20 00:06:08;;;;;;;5.75;3.28;;;;;;;;;;5086083;28;20224;-68
2022/04/20 00:08:35;;;;;;;4.95;2.90;;;;;;;;;;5085926;28;20196;-68
2022/04/20 00:11:01;;;;;;;9.35;3.65;;;;;;;;;;5086197;28;20526;-68
2022/04/20 00:13:27;;;;;;;3.63;3.22;;;;;;;;;;5085804;28;20227;-68
2022/04/20 00:15:55;;;;;;;3.30;3.10;;;;;;;;;;5086103;28;20526;-68
2022/04/20 00:18:21;;;;;;;3.75;3.38;;;;;;;;;;5086023;28;20196;-68
2022/04/20 00:20:48;;;;;;;3.30;3.10;;;;;;;;;;5085794;28;20234;-68
2022/04/20 00:23:14;;;;;;;3.47;3.28;;;;;;;;;;5085645;28;20192;-68
2022/04/20 00:25:40;;;;;;;3.30;3.10;;;;;;;;;;5085841;28;20203;-68
2022/04/20 00:28:06;;;;;;;4.07;3.58;;;;;;;;;;5085626;28;20266;-68
2022/04/20 00:30:33;;;;;;;3.85;3.42;;;;;;;;;;5085628;28;20196;-68
2022/04/20 00:33:00;;;;;;;4.82;3.60;;;;;;;;;;5085599;28;20424;-68
2022/04/20 00:35:27;;;;;;;3.60;3.20;;;;;;;;;;5085531;28;20213;-68
2022/04/20 00:37:53;;;;;;;3.25;3.05;;;;;;;;;;5085283;28;20238;-68
2022/04/20 00:40:19;;;;;;;3.25;3.15;;;;;;;;;;5085465;28;20200;-68
2022/04/20 00:42:45;;;;;;;3.28;2.97;;;;;;;;;;5085536;28;20204;-68
2022/04/20 00:45:12;;;;;;;3.63;3.30;;;;;;;;;;5085388;28;20247;-68
2022/04/20 00:47:39;;;;;;;5.75;3.40;;;;;;;;;;5085278;28;20263;-68
2022/04/20 00:50:07;;;;;;;2.80;2.70;;;;;;;;;;5085186;28;20239;-68
2022/04/20 00:52:34;;;;;;;3.13;3.00;;;;;;;;;;5085503;28;20204;-68
2022/04/20 00:55:00;;;;;;;3.00;2.80;;;;;;;;;;5085213;28;20242;-68
2022/04/20 00:57:26;;;;;;;2.80;2.63;;;;;;;;;;5084811;28;20196;-68
2022/04/20 00:59:53;;;;;;;3.28;3.10;;;;;;;;;;5085087;28;20424;-68
2022/04/20 01:02:21;;;;;;;2.80;2.70;;;;;;;;;;5085015;28;20234;-68
2022/04/20 01:04:47;;;;;;;3.03;2.83;;;;;;;;;;5084901;28;20196;-68
2022/04/20 01:07:15;;;;;;;3.88;2.80;;;;;;;;;;5084937;28;20230;-68
2022/04/20 01:09:42;;;;;;;3.58;2.67;;;;;;;;;;5085004;28;20188;-68
2022/04/20 01:12:09;;;;;;;3.03;2.83;;;;;;;;;;5084840;28;20250;-68
2022/04/20 01:14:36;;;;;;;3.53;2.80;;;;;;;;;;5084343;28;20535;-68
2022/04/20 01:17:02;;;;;;;3.17;2.88;;;;;;;;;;5084449;28;20492;-68
2022/04/20 01:19:32;;;;;;;5.38;3.00;;;;;;;;;;5084692;28;20234;-68
2022/04/20 01:21:59;;;;;;;3.40;3.10;;;;;;;;;;5085124;28;20542;-68
2022/04/20 01:24:26;;;;;;;3.33;3.10;;;;;;;;;;5084573;28;20230;-68
2022/04/20 01:26:52;;;;;;;3.00;2.75;;;;;;;;;;5084394;28;20223;-68
2022/04/20 01:29:18;;;;;;;2.88;2.67;;;;;;;;;;5084168;28;20230;-68
2022/04/20 01:31:45;;;;;;;2.72;2.63;;;;;;;;;;5084448;28;20196;-68
2022/04/20 01:34:11;;;;;;;3.42;3.22;;;;;;;;;;5084426;28;20258;-68
2022/04/20 01:36:37;;;;;;;3.78;3.40;;;;;;;;;;5084241;28;20234;-68
2022/04/20 01:39:05;;;;;;;3.03;2.83;;;;;;;;;;5084364;28;20201;-68
2022/04/20 01:41:32;;;;;;;3.35;3.05;;;;;;;;;;5084419;28;20415;-68
2022/04/20 01:43:58;;;;;;;2.83;2.63;;;;;;;;;;5084403;28;20215;-68
2022/04/20 01:46:24;;;;;;;4.30;3.42;;;;;;;;;;5084079;28;20203;-68
2022/04/20 01:48:50;;;;;;;2.92;2.80;;;;;;;;;;5084289;28;20197;-68
2022/04/20 01:54:01;;;;;;;4.28;2.67;;;;;;;;;;5084324;28;20269;-68
2022/04/20 01:56:28;;;;;;;3.08;2.88;;;;;;;;;;5083905;28;20208;-68
2022/04/20 01:58:54;;;;;;;3.05;2.92;;;;;;;;;;5084212;28;20234;-68
2022/04/20 02:04:06;;;;;;;3.08;2.97;;;;;;;;;;5083836;28;20237;-68
2022/04/20 02:06:32;;;;;;;4.38;3.10;;;;;;;;;;5083815;28;20239;-68
2022/04/20 02:08:58;;;;;;;3.65;2.58;;;;;;;;;;5083998;28;20223;-68
2022/04/20 02:11:25;;;;;;;3.50;3.30;;;;;;;;;;5083970;28;20491;-68
2022/04/20 02:13:52;;;;;;;3.17;2.97;;;;;;;;;;5083808;28;20418;-68
2022/04/20 02:16:18;;;;;;;3.00;2.80;;;;;;;;;;5083623;28;20196;-68
2022/04/20 02:18:45;;;;;;;3.88;3.58;;;;;;;;;;5083678;28;20200;-68
2022/04/20 02:21:11;;;;;;;3.17;3.03;;;;;;;;;;5083799;28;20266;-68
2022/04/20 02:23:37;;;;;;;3.90;3.65;;;;;;;;;;5083532;28;20196;-68
2022/04/20 02:26:04;;;;;;;3.45;3.15;;;;;;;;;;5082680;28;20219;-68
2022/04/20 02:28:30;;;;;;;3.47;3.17;;;;;;;;;;5083405;28;20245;-68
2022/04/20 02:30:57;;;;;;;3.33;3.10;;;;;;;;;;5083340;28;20200;-68
2022/04/20 02:33:24;;;;;;;3.42;3.22;;;;;;;;;;5083176;28;20242;-68
2022/04/20 02:35:50;;;;;;;3.00;2.90;;;;;;;;;;5083414;28;20286;-68
2022/04/20 02:38:17;;;;;;;4.40;3.38;;;;;;;;;;5083340;28;20192;-68
2022/04/20 02:40:44;;;;;;;3.38;3.20;;;;;;;;;;5083229;28;20228;-67
2022/04/20 02:43:11;;;;;;;3.28;3.15;;;;;;;;;;5083036;28;20223;-68
2022/04/20 02:45:37;;;;;;;3.30;3.10;;;;;;;;;;5083212;28;20193;-68
2022/04/20 02:48:05;;;;;;;3.33;3.13;;;;;;;;;;5082738;28;20242;-68
2022/04/20 02:50:31;;;;;;;3.10;3.00;;;;;;;;;;5083122;28;20200;-68
2022/04/20 02:52:58;;;;;;;3.70;3.25;;;;;;;;;;5083065;28;20434;-68
2022/04/20 02:55:24;;;;;;;3.53;3.20;;;;;;;;;;5082728;28;20216;-68
2022/04/20 02:57:51;;;;;;;5.38;3.10;;;;;;;;;;5082739;28;20197;-68
2022/04/20 03:00:17;;;;;;;3.35;2.88;;;;;;;;;;5082656;28;20208;-68
2022/04/20 03:02:43;;;;;;;3.47;3.35;;;;;;;;;;5082713;28;20203;-68
2022/04/20 03:05:11;;;;;;;3.15;3.05;;;;;;;;;;5082783;28;20212;-68
2022/04/20 03:07:38;;;;;;;3.28;3.10;;;;;;;;;;5082603;28;20200;-68
2022/04/20 03:10:04;;;;;;;3.45;3.03;;;;;;;;;;5082602;28;20196;-68
2022/04/20 03:12:30;;;;;;;3.03;2.83;;;;;;;;;;5082673;28;20508;-68
2022/04/20 03:14:57;;;;;;;3.95;3.42;;;;;;;;;;5082551;28;20535;-68
2022/04/20 03:17:23;;;;;;;5.03;3.42;;;;;;;;;;5082176;28;20207;-68
2022/04/20 03:19:49;;;;;;;3.22;3.00;;;;;;;;;;5082640;28;20410;-68
2022/04/20 03:22:17;;;;;;;4.00;3.13;;;;;;;;;;5082610;28;20422;-68
2022/04/20 03:24:43;;;;;;;3.97;3.65;;;;;;;;;;5082381;28;20488;-68
2022/04/20 03:27:10;;;;;;;3.70;3.45;;;;;;;;;;5082185;28;20235;-68
2022/04/20 03:29:36;;;;;;;3.25;3.08;;;;;;;;;;5082375;28;20208;-68
2022/04/20 03:32:08;;;;;;;3.78;3.58;;;;;;;;;;5082644;28;20208;-68
2022/04/20 03:34:34;;;;;;;3.70;3.45;;;;;;;;;;5082289;28;20220;-68
2022/04/20 03:37:00;;;;;;;3.47;3.00;;;;;;;;;;5082201;28;20242;-68
2022/04/20 03:39:28;;;;;;;3.65;3.35;;;;;;;;;;5082343;28;20200;-68
2022/04/20 03:41:54;;;;;;;3.25;3.05;;;;;;;;;;5082561;28;20196;-68
2022/04/20 03:44:21;;;;;;;4.30;3.90;;;;;;;;;;5082364;28;20214;-68
2022/04/20 03:46:47;;;;;;;3.83;3.53;;;;;;;;;;5082256;28;20199;-68
2022/04/20 03:49:13;;;;;;;3.05;2.95;;;;;;;;;;5082374;28;20192;-68
2022/04/20 03:51:40;;;;;;;3.30;3.00;;;;;;;;;;5082433;28;20196;-68
2022/04/20 03:54:06;;;;;;;3.72;3.25;;;;;;;;;;5082286;28;20227;-68
2022/04/20 03:59:14;;;;;;;3.55;3.35;;;;;;;;;;5081796;28;20195;-68
2022/04/20 04:01:40;;;;;;;3.30;3.10;;;;;;;;;;5082078;28;20204;-68
2022/04/20 04:04:07;;;;;;;3.05;2.85;;;;;;;;;;5082199;28;20425;-68
2022/04/20 04:06:33;;;;;;;7.28;3.50;;;;;;;;;;5081750;28;20238;-67
2022/04/20 04:09:00;;;;;;;3.50;3.20;;;;;;;;;;5081808;28;20215;-67
2022/04/20 04:11:26;;;;;;;3.55;3.17;;;;;;;;;;5081964;28;20261;-68
2022/04/20 04:13:54;;;;;;;3.22;3.13;;;;;;;;;;5082163;28;20203;-68
2022/04/20 04:16:20;;;;;;;4.07;3.78;;;;;;;;;;5081167;28;20461;-68
2022/04/20 04:18:46;;;;;;;4.22;3.92;;;;;;;;;;5081896;28;20242;-68
2022/04/20 04:21:13;;;;;;;4.13;3.83;;;;;;;;;;5081880;28;20212;-68
2022/04/20 04:23:39;;;;;;;4.10;3.80;;;;;;;;;;5081843;28;20197;-68
2022/04/20 04:26:05;;;;;;;5.57;3.92;;;;;;;;;;5081609;28;20197;-68
2022/04/20 04:28:32;;;;;;;4.13;3.67;;;;;;;;;;5081878;28;20234;-68
2022/04/20 04:30:59;;;;;;;3.20;3.10;;;;;;;;;;5082225;28;20210;-68
2022/04/20 04:33:26;;;;;;;3.88;3.25;;;;;;;;;;5081948;28;20201;-68
2022/04/20 04:35:52;;;;;;;3.30;3.10;;;;;;;;;;5081897;28;20245;-68
2022/04/20 04:38:18;;;;;;;3.50;3.30;;;;;;;;;;5081579;28;20204;-68
2022/04/20 04:40:44;;;;;;;3.70;3.40;;;;;;;;;;5081988;28;20212;-68
2022/04/20 04:43:11;;;;;;;3.00;2.85;;;;;;;;;;5081886;28;20196;-68
2022/04/20 04:48:39;;;;;;;3.90;3.60;;;;;;;;;;5081550;28;20238;-68
2022/04/20 04:51:05;;;;;;;3.58;3.38;;;;;;;;;;5085279;28;20220;-68
2022/04/20 04:53:32;;;;;;;3.92;3.63;;;;;;;;;;5085575;28;20196;-68
2022/04/20 04:55:58;;;;;;;3.17;3.08;;;;;;;;;;5085175;28;20235;-68
2022/04/20 04:58:24;;;;;;;3.42;3.22;;;;;;;;;;5085365;28;20234;-68
2022/04/20 05:00:50;;;;;;;3.60;3.40;;;;;;;;;;5085032;28;20205;-68
2022/04/20 05:03:17;;;;;;;3.15;2.85;;;;;;;;;;5085483;28;20233;-68
2022/04/20 05:05:44;;;;;;;4.53;3.70;;;;;;;;;;5084799;28;20212;-68
2022/04/20 05:08:11;;;;;;;3.40;3.20;;;;;;;;;;5084991;28;20403;-68
2022/04/20 05:10:37;;;;;;;7.20;3.63;;;;;;;;;;5083853;28;20184;-68
2022/04/20 05:13:03;;;;;;;8.63;3.78;;;;;;;;;;5084930;28;20196;-68
2022/04/20 05:15:30;;;;;;;4.93;3.70;;;;;;;;;;5084707;28;20213;-68
2022/04/20 05:17:56;;;;;;;4.55;3.42;;;;;;;;;;5084565;28;20516;-68
2022/04/20 05:20:22;;;;;;;3.47;3.35;;;;;;;;;;5085012;28;20261;-68
2022/04/20 05:22:50;;;;;;;4.45;3.65;;;;;;;;;;5084754;28;20204;-68
2022/04/20 05:25:17;;;;;;;4.22;3.55;;;;;;;;;;5084935;28;20193;-68
2022/04/20 05:27:44;;;;;;;4.82;3.40;;;;;;;;;;5084446;28;20587;-68
2022/04/20 05:30:13;;;;;;;6.72;3.53;;;;;;;;;;5084754;28;20361;-68
2022/04/20 05:32:39;;;;;;;4.00;3.80;;;;;;;;;;5084487;28;20205;-68
2022/04/20 05:35:06;;;;;;;4.55;4.25;;;;;;;;;;5084547;28;20445;-68
2022/04/20 05:43:01;;;;;;;5.05;4.32;;;;;;;;;;5083902;28;20194;-68
2022/04/20 05:45:27;;;;;;;5.55;3.97;;;;;;;;;;5083943;28;20199;-68
2022/04/20 05:47:53;;;;;;;6.47;4.20;;;;;;;;;;5083570;28;20200;-68
2022/04/20 05:50:20;;;;;;;3.60;3.38;;;;;;;;;;5083675;28;20204;-68
2022/04/20 05:52:46;;;;;;;5.13;4.00;;;;;;;;;;5083552;28;20197;-68
2022/04/20 05:55:12;;;;;;;6.22;4.00;;;;;;;;;;5083440;28;20217;-68
2022/04/20 05:57:40;;;;;;;3.72;3.53;;;;;;;;;;5083244;28;20213;-68
2022/04/20 06:00:07;;;;;;;3.40;3.10;;;;;;;;;;5082962;28;20212;-68
2022/04/20 06:02:34;;;;;;;4.13;3.45;;;;;;;;;;5083025;28;20196;-68
2022/04/20 06:05:01;;;;;;;4.13;3.72;;;;;;;;;;5079920;28;20212;-68
2022/04/20 06:07:27;;;;;;;2.97;2.78;;;;;;;;;;5092859;28;20215;-68
2022/04/20 06:09:53;;;;;;;3.17;2.97;;;;;;;;;;5088770;28;20216;-67
2022/04/20 06:12:20;;;;;;;3.20;3.00;;;;;;;;;;5090669;28;20219;-68
2022/04/20 06:14:48;;;;;;;3.40;3.10;;;;;;;;;;5094926;28;20242;-68
2022/04/20 06:17:14;;;;;;;3.10;3.00;;;;;;;;;;5097506;28;20204;-68
2022/04/20 06:19:41;;;;;;;3.50;3.30;;;;;;;;;;5097646;28;20213;-69
2022/04/20 06:22:07;;;;;;;2.80;2.70;;;;;;;;;;5098373;28;20446;-69
2022/04/20 06:24:33;;;;;;;3.28;3.08;;;;;;;;;;5097498;28;20218;-57
2022/04/20 06:27:00;;;;;;;2.95;2.85;;;;;;;;;;5096272;28;20204;-59
2022/04/20 06:29:26;;;;;;;3.50;3.20;;;;;;;;;;5098086;28;20242;-58
2022/04/20 06:31:54;;;;;;;3.15;3.00;;;;;;;;;;5097928;28;20404;-59
2022/04/20 06:34:20;;;;;;;3.75;3.50;;;;;;;;;;5097829;28;20215;-58
2022/04/20 06:36:46;;;;;;;3.70;3.50;;;;;;;;;;5097408;28;20504;-59
2022/04/20 06:39:13;;;;;;;3.00;2.90;;;;;;;;;;5097080;28;20211;-59
2022/04/20 06:41:39;;;;;;;3.25;3.05;;;;;;;;;;5097861;28;20211;-59
2022/04/20 06:44:05;;;;;;;3.47;3.00;;;;;;;;;;5097562;28;20214;-57
2022/04/20 06:46:33;;;;;;;3.50;3.20;;;;;;;;;;5095702;28;20211;-59
2022/04/20 06:49:00;;;;;;;3.65;3.45;;;;;;;;;;5097274;28;20274;-59
2022/04/20 06:58:31;;;;;;;3.65;3.40;;;;;;;;;;5097417;28;20207;-59
2022/04/20 06:59:41;;;;;;;3.20;2.90;;;;;;;;;;5097379;28;20199;-59
2022/04/20 07:02:08;;;;;;;3.70;3.50;;;;;;;;;;5097084;28;20257;-58
2022/04/20 07:04:36;;;;;;;3.60;3.45;;;;;;;;;;5097096;28;20283;-59
2022/04/20 07:07:02;;;;;;;3.65;3.40;;;;;;;;;;5096243;28;20203;-58
2022/04/20 07:09:28;;;;;;;4.18;3.88;;;;;;;;;;5095860;28;20211;-60
2022/04/20 07:11:54;;;;;;;4.60;4.30;;;;;;;;;;5096888;28;20519;-60
2022/04/20 07:14:21;;;;;;;4.15;3.83;;;;;;;;;;5097111;28;20207;-59
2022/04/20 07:16:47;;;;;;;4.25;3.65;;;;;;;;;;5096600;28;20248;-59
2022/04/20 07:19:13;;;;;;;3.67;3.53;;;;;;;;;;5096809;28;20211;-59
2022/04/20 07:21:41;;;;;;;3.83;3.65;;;;;;;;;;5097116;28;20492;-59
2022/04/20 07:24:07;;;;;;;3.63;3.33;;;;;;;;;;5097047;28;20564;-57
2022/04/20 07:26:33;;;;;;;3.45;3.25;;;;;;;;;;5083726;28;20208;-57
2022/04/20 07:28:59;;;;;;;3.38;3.17;;;;;;;;;;5076713;28;20215;-60
2022/04/20 07:31:26;;;;;;;5.53;4.70;;;;;;;;;;5094590;28;20269;-56
2022/04/20 07:33:52;;;;;;;4.63;4.15;;;;;;;;;;5096777;28;20211;-59
2022/04/20 07:36:21;;;;;;;4.88;4.47;;;;;;;;;;5095985;28;20219;-58
2022/04/20 07:38:49;;;;;;;4.00;3.70;;;;;;;;;;5096721;28;20324;-58
2022/04/20 07:41:15;;;;;;;4.13;3.83;;;;;;;;;;5096651;28;20330;-57
2022/04/20 07:43:41;;;;;;;5.00;3.60;;;;;;;;;;5097172;28;20212;-58
2022/04/20 07:46:07;;;;;;;4.10;3.80;;;;;;;;;;5095979;28;20249;-57
2022/04/20 07:48:34;;;;;;;4.20;4.00;;;;;;;;;;5096498;28;20207;-58
2022/04/20 07:51:00;;;;;;;4.03;3.72;;;;;;;;;;5096095;28;20261;-59
2022/04/20 07:53:27;;;;;;;4.28;3.88;;;;;;;;;;5096452;28;20559;-60
2022/04/20 07:55:54;;;;;;;3.50;3.22;;;;;;;;;;5096047;28;20272;-60
2022/04/20 07:58:21;;;;;;;3.80;3.45;;;;;;;;;;5095992;28;20215;-59
2022/04/20 08:00:49;;;;;;;4.07;3.20;;;;;;;;;;5095915;28;20215;-60
2022/04/20 08:03:16;;;;;;;3.75;3.50;;;;;;;;;;5096321;28;20207;-59
2022/04/20 08:05:43;;;;;;;3.20;3.00;;;;;;;;;;5095957;28;20572;-59
2022/04/20 08:08:10;;;;;;;3.15;3.00;;;;;;;;;;5096258;28;20208;-58
2022/04/20 08:10:36;;;;;;;3.88;3.45;;;;;;;;;;5096893;28;20211;-58
2022/04/20 08:14:09;;;;;;;3.90;3.33;;;;;;;;;;5096262;28;20211;-58
2022/04/20 08:15:51;;;;;;;3.22;3.13;;;;;;;;;;5095935;28;20231;-58
2022/04/20 08:18:17;;;;;;;3.40;3.20;;;;;;;;;;5095927;28;20208;-58
2022/04/20 08:20:43;;;;;;;3.63;3.42;;;;;;;;;;5096145;28;20212;-58
2022/04/20 08:23:09;;;;;;;3.50;3.28;;;;;;;;;;5096322;28;20212;-59
2022/04/20 08:25:36;;;;;;;3.75;3.22;;;;;;;;;;5099500;28;20562;-58
2022/04/20 08:28:04;;;;;;;3.05;2.95;;;;;;;;;;5100232;28;20200;-56
2022/04/20 08:30:30;;;;;;;3.40;3.20;;;;;;;;;;5100229;28;20242;-58
2022/04/20 08:32:56;;;;;;;3.42;3.20;;;;;;;;;;5099744;28;20217;-56
2022/04/20 08:35:23;;;;;;;3.63;3.00;;;;;;;;;;5099598;28;20384;-57
2022/04/20 08:37:49;;;;;;;4.90;2.97;;;;;;;;;;5099262;28;20215;-57
2022/04/20 08:40:15;;;;;;;2.85;2.75;;;;;;;;;;5099889;28;20230;-58
2022/04/20 08:42:41;;;;;;;3.00;2.83;;;;;;;;;;5099511;28;20572;-57
2022/04/20 08:45:10;;;;;;;3.53;3.13;;;;;;;;;;5099782;28;20208;-59
2022/04/20 08:47:37;;;;;;;2.90;2.80;;;;;;;;;;5099446;28;20577;-58
2022/04/20 08:50:04;;;;;;;5.00;3.67;;;;;;;;;;5100080;28;20384;-59
2022/04/20 08:52:39;;;;;;;3.30;3.10;;;;;;;;;;5098747;28;20245;-58
2022/04/20 08:55:07;;;;;;;3.72;3.42;;;;;;;;;;5098248;28;20414;-58
2022/04/20 08:57:33;;;;;;;3.58;2.85;;;;;;;;;;5098347;28;20230;-59
2022/04/20 09:00:00;;;;;;;3.70;2.80;;;;;;;;;;5098693;28;20377;-59
2022/04/20 09:02:28;;;;;;;3.78;3.25;;;;;;;;;;5099452;28;20388;-59
2022/04/20 09:04:55;;;;;;;2.78;2.35;;;;;;;;;;5098760;28;20242;-59
2022/04/20 09:07:21;;;;;;;4.65;2.50;;;;;;;;;;5098518;28;20203;-58
2022/04/20 09:09:47;;;;;;;2.75;2.65;;;;;;;;;;5098997;28;20238;-58
2022/04/20 09:12:15;;;;;;;3.00;2.85;;;;;;;;;;5098793;28;20249;-58
2022/04/20 09:14:43;;;;;;;3.70;3.42;;;;;;;;;;5098304;28;20235;-58
2022/04/20 09:17:11;;;;;;;4.07;3.80;;;;;;;;;;5097837;28;20294;-59
2022/04/20 09:19:38;;;;;;;4.50;4.10;;;;;;;;;;5098361;28;20218;-59
2022/04/20 09:22:16;;;;;;;3.13;2.78;;;;;;;;;;5098476;28;20208;-59
2022/04/20 09:24:57;;;;;;;3.10;2.90;;;;;;;;;;5098045;28;20227;-58
2022/04/20 09:27:23;;;;;;;3.35;3.15;;;;;;;;;;5098176;28;20274;-59
2022/04/20 09:29:52;;;;;;;6.38;3.55;;;;;;;;;;5098761;28;20253;-59
2022/04/20 09:32:30;;;;;;;3.65;3.35;;;;;;;;;;5098870;28;20208;-59
2022/04/20 09:34:58;;;;;;;2.67;2.47;;;;;;;;;;5098086;28;20273;-59
2022/04/20 09:37:25;;;;;;;2.38;2.17;;;;;;;;;;5097502;28;20670;-59
2022/04/20 09:39:51;;;;;;;2.30;2.17;;;;;;;;;;5098484;28;20208;-59
2022/04/20 09:42:18;;;;;;;3.08;2.88;;;;;;;;;;5099284;28;20208;-58
2022/04/20 09:44:59;;;;;;;5.90;3.65;;;;;;;;;;5098056;28;20235;-60
2022/04/20 09:50:11;;;;;;;2.90;2.70;;;;;;;;;;5098170;28;20236;-59
2022/04/20 09:52:38;;;;;;;2.30;2.20;;;;;;;;;;5098294;28;20208;-58
2022/04/20 09:55:06;;;;;;;3.05;2.75;;;;;;;;;;5098068;28;20212;-59
2022/04/20 09:57:32;;;;;;;2.90;2.42;;;;;;;;;;5097676;28;20295;-59
2022/04/20 09:59:59;;;;;;;2.72;2.53;;;;;;;;;;5098253;28;20217;-60
2022/04/20 10:02:27;;;;;;;2.28;2.10;;;;;;;;;;5098300;28;20200;-58
2022/04/20 10:04:53;;;;;;;3.92;2.60;;;;;;;;;;5098285;28;20208;-60
2022/04/20 10:07:21;;;;;;;2.60;2.40;;;;;;;;;;5097261;28;20499;-58
2022/04/20 10:09:47;;;;;;;5.55;2.60;;;;;;;;;;5097986;28;20207;-59
2022/04/20 10:12:15;;;;;;;3.10;2.75;;;;;;;;;;5098392;28;20208;-60
2022/04/20 10:17:26;;;;;;;2.63;2.53;;;;;;;;;;5096985;28;20226;-59
2022/04/20 10:19:53;;;;;;;2.45;2.25;;;;;;;;;;5098048;28;20592;-60
2022/04/20 10:22:21;;;;;;;4.28;2.33;;;;;;;;;;5098258;28;20511;-59
2022/04/20 10:24:50;;;;;;;3.45;2.40;;;;;;;;;;5097458;28;20214;-58
2022/04/20 10:27:19;;;;;;;2.35;2.25;;;;;;;;;;5096645;28;20204;-60
2022/04/20 10:29:57;;;;;;;3.88;2.15;;;;;;;;;;5097029;28;20435;-59
2022/04/20 10:32:24;;;;;;;5.30;2.97;;;;;;;;;;5097368;28;20274;-59
2022/04/20 10:34:51;;;;;;;4.70;2.75;;;;;;;;;;5097218;28;20207;-58
2022/04/20 10:37:19;;;;;;;2.85;2.70;;;;;;;;;;5096722;28;20285;-60
2022/04/20 10:39:47;;;;;;;2.85;2.33;;;;;;;;;;5096992;28;20215;-59
2022/04/20 10:42:21;;;;;;;4.47;1.77;;;;;;;;;;5097152;28;20234;-57
2022/04/20 10:45:05;;;;;;;2.58;2.42;;;;;;;;;;5096607;28;20211;-59
2022/04/20 10:47:32;;;;;;;2.90;2.63;;;;;;;;;;5086135;28;20267;-59
2022/04/20 10:50:14;;;;;;;3.63;2.83;;;;;;;;;;5097180;28;20226;-60
2022/04/20 10:52:41;;;;;;;2.85;2.38;;;;;;;;;;5097535;28;20441;-60
2022/04/20 10:55:10;;;;;;;3.50;2.45;;;;;;;;;;5097217;28;20271;-60
2022/04/20 10:57:38;;;;;;;3.33;2.50;;;;;;;;;;5096520;28;20479;-60
2022/04/20 11:00:24;;;;;;;2.75;1.88;;;;;;;;;;5097048;28;20222;-60
2022/04/20 11:02:50;;;;;;;5.28;1.98;;;;;;;;;;5097247;28;20214;-59
2022/04/20 11:05:20;;;;;;;3.90;1.95;;;;;;;;;;5097186;28;20277;-60
2022/04/20 11:08:01;;;;;;;6.30;2.00;;;;;;;;;;5096786;28;20216;-60
2022/04/20 11:10:29;;;;;;;2.15;2.05;;;;;;;;;;5096921;28;20218;-60
2022/04/20 11:18:42;;;;;;;2.50;2.10;;;;;;;;;;5097079;28;20257;-59
2022/04/20 11:21:12;;;;;;;2.30;2.10;;;;;;;;;;5096671;28;20524;-60
2022/04/20 11:23:57;;;;;;;2.42;2.33;;;;;;;;;;5097092;28;20211;-60
2022/04/20 11:26:26;;;;;;;2.28;2.17;;;;;;;;;;5096400;28;20271;-62
2022/04/20 11:28:53;;;;;;;2.13;2.00;;;;;;;;;;5096677;28;20278;-60
2022/04/20 11:31:19;;;;;;;2.13;2.10;;;;;;;;;;5096531;28;20211;-60
2022/04/20 11:33:45;;;;;;;2.85;2.67;;;;;;;;;;5096869;28;20550;-60
2022/04/20 11:36:12;;;;;;;2.60;2.38;;;;;;;;;;5096011;28;20204;-60
2022/04/20 11:38:40;;;;;;;2.50;2.38;;;;;;;;;;5096820;28;20348;-58
2022/04/20 11:41:06;;;;;;;3.65;2.20;;;;;;;;;;5096028;28;20214;-60
2022/04/20 11:43:36;;;;;;;2.25;1.95;;;;;;;;;;5096526;28;20208;-60
2022/04/20 11:46:02;;;;;;;2.58;2.47;;;;;;;;;;5095923;28;20493;-60
2022/04/20 11:48:29;;;;;;;2.08;1.98;;;;;;;;;;5096569;28;20207;-60
2022/04/20 11:50:56;;;;;;;2.17;2.08;;;;;;;;;;5096599;28;20519;-59
2022/04/20 11:53:23;;;;;;;2.33;2.22;;;;;;;;;;5092828;28;20212;-59
2022/04/20 11:55:49;;;;;;;2.20;1.90;;;;;;;;;;5096834;28;20265;-60
2022/04/20 11:58:16;;;;;;;2.42;2.20;;;;;;;;;;5096198;28;20250;-60
2022/04/20 12:00:44;;;;;;;3.50;2.53;;;;;;;;;;5100389;28;20454;-59
2022/04/20 12:03:10;;;;;;;2.72;2.53;;;;;;;;;;5100511;28;20623;-59
2022/04/20 12:05:36;;;;;;;2.20;2.20;;;;;;;;;;5100692;28;20619;-59
2022/04/20 12:08:03;;;;;;;2.65;2.45;;;;;;;;;;5100388;28;20511;-58
2022/04/20 12:10:32;;;;;;;2.30;2.20;;;;;;;;;;5100463;28;20208;-60
2022/04/20 12:13:02;;;;;;;2.10;2.00;;;;;;;;;;5100155;28;20219;-58
2022/04/20 12:15:28;;;;;;;3.30;2.53;;;;;;;;;;5100290;28;20215;-60
2022/04/20 12:17:56;;;;;;;2.50;2.30;;;;;;;;;;5100042;28;20254;-59
2022/04/20 12:20:25;;;;;;;2.63;2.30;;;;;;;;;;5100380;28;20415;-59
2022/04/20 12:23:04;;;;;;;2.25;1.83;;;;;;;;;;5100334;28;20448;-60
2022/04/20 12:25:30;;;;;;;3.22;1.95;;;;;;;;;;5080020;28;20254;-60
2022/04/20 12:27:57;;;;;;;3.22;2.17;;;;;;;;;;5079611;28;20212;-60
2022/04/20 12:30:45;;;;;;;1.85;1.85;;;;;;;;;;5080030;28;20219;-60
2022/04/20 12:33:22;;;;;;;2.30;2.20;;;;;;;;;;5075556;28;20208;-60
2022/04/20 12:35:58;;;;;;;2.53;2.33;;;;;;;;;;5079661;28;20279;-59
2022/04/20 12:38:24;;;;;;;2.50;2.40;;;;;;;;;;5079641;28;20227;-58
2022/04/20 12:40:51;;;;;;;2.22;2.15;;;;;;;;;;5080015;28;20213;-59
2022/04/20 12:43:17;;;;;;;2.28;1.98;;;;;;;;;;5079718;28;20212;-57
2022/04/20 12:45:44;;;;;;;2.65;2.53;;;;;;;;;;5094965;28;20297;-59
2022/04/20 12:48:11;;;;;;;1.90;1.80;;;;;;;;;;5099486;28;20253;-59
2022/04/20 12:50:39;;;;;;;2.65;2.47;;;;;;;;;;5100347;28;20203;-59
2022/04/20 12:53:05;;;;;;;2.28;2.08;;;;;;;;;;5100106;28;20519;-59
2022/04/20 13:04:10;;;;;;;4.43;2.08;;;;;;;;;;5079334;28;20402;-59
2022/04/20 13:06:38;;;;;;;4.80;1.70;;;;;;;;;;5093656;28;20231;-58
2022/04/20 13:09:04;;;;;;;1.92;1.92;;;;;;;;;;5099738;28;20515;-59
2022/04/20 13:11:31;;;;;;;3.60;1.60;;;;;;;;;;5099100;28;20207;-59
2022/04/20 13:13:57;;;;;;;1.92;1.92;;;;;;;;;;5099313;28;20204;-59
2022/04/20 13:16:23;;;;;;;3.05;1.88;;;;;;;;;;5098422;28;20269;-58
2022/04/20 13:18:51;;;;;;;1.75;1.67;;;;;;;;;;5099145;28;20462;-59
2022/04/20 13:21:17;;;;;;;1.85;1.75;;;;;;;;;;5098832;28;20219;-60
2022/04/20 13:23:44;;;;;;;4.00;1.80;;;;;;;;;;5099264;28;20253;-59
2022/04/20 13:28:55;;;;;;;2.58;1.90;;;;;;;;;;5099010;28;20226;-59
2022/04/20 13:31:22;;;;;;;4.43;1.60;;;;;;;;;;5099312;28;20203;-59
2022/04/20 13:33:49;;;;;;;4.00;1.70;;;;;;;;;;5098943;28;20208;-59
2022/04/20 13:36:15;;;;;;;1.77;1.77;;;;;;;;;;5098899;28;20246;-58
2022/04/20 13:38:41;;;;;;;1.80;1.70;;;;;;;;;;5098253;28;20403;-59
2022/04/20 13:41:09;;;;;;;1.95;1.80;;;;;;;;;;5098920;28;20538;-59
2022/04/20 13:43:35;;;;;;;1.70;1.60;;;;;;;;;;5098827;28;20406;-59
2022/04/20 13:46:01;;;;;;;2.38;1.90;;;;;;;;;;5098381;28;20531;-59
2022/04/20 13:48:27;;;;;;;1.80;1.70;;;;;;;;;;5098131;28;20538;-59
2022/04/20 13:50:54;;;;;;;1.80;1.70;;;;;;;;;;5098202;28;20899;-59
2022/04/20 13:53:20;;;;;;;2.05;1.70;;;;;;;;;;5098565;28;20527;-60
2022/04/20 13:55:47;;;;;;;1.83;1.73;;;;;;;;;;5098223;28;20294;-59
2022/04/20 13:58:14;;;;;;;3.72;1.80;;;;;;;;;;5097552;28;20232;-59
2022/04/20 14:00:41;;;;;;;2.20;2.05;;;;;;;;;;5098131;28;20237;-59
2022/04/20 14:03:08;;;;;;;5.18;1.73;;;;;;;;;;5098157;28;20208;-59
2022/04/20 14:05:34;;;;;;;3.95;1.80;;;;;;;;;;5097995;28;20268;-61
2022/04/20 14:08:00;;;;;;;1.88;1.77;;;;;;;;;;5097504;28;20204;-59
2022/04/20 14:10:26;;;;;;;2.03;1.80;;;;;;;;;;5098477;28;20211;-59
2022/04/20 14:12:52;;;;;;;3.22;1.80;;;;;;;;;;5098636;28;20215;-59
2022/04/20 14:15:20;;;;;;;3.20;1.92;;;;;;;;;;5098396;28;20207;-58
2022/04/20 14:17:46;;;;;;;4.40;1.75;;;;;;;;;;5097553;28;20671;-60
2022/04/20 14:20:13;;;;;;;4.30;1.83;;;;;;;;;;5097896;28;20531;-61
2022/04/20 14:22:39;;;;;;;1.50;1.50;;;;;;;;;;5097332;28;20204;-60
2022/04/20 14:33:20;;;;;;;2.00;1.90;;;;;;;;;;5098465;28;20257;-61
2022/04/20 14:35:46;;;;;;;1.95;1.85;;;;;;;;;;5098197;28;20248;-61
2022/04/20 14:38:13;;;;;;;1.80;1.58;;;;;;;;;;5097488;28;20241;-60
2022/04/20 14:40:39;;;;;;;2.10;1.98;;;;;;;;;;5097340;28;21060;-61
2022/04/20 14:43:05;;;;;;;1.90;1.80;;;;;;;;;;5097718;28;20245;-60
2022/04/20 14:45:31;;;;;;;2.25;2.08;;;;;;;;;;5097513;28;20427;-60
2022/04/20 14:48:01;;;;;;;2.20;2.10;;;;;;;;;;5097117;28;20515;-59
2022/04/20 14:50:27;;;;;;;2.05;1.95;;;;;;;;;;5096992;28;20283;-60
2022/04/20 14:52:54;;;;;;;4.50;1.98;;;;;;;;;;5097628;28;20211;-60
2022/04/20 14:55:20;;;;;;;5.07;1.92;;;;;;;;;;5097480;28;20208;-61
2022/04/20 14:57:47;;;;;;;2.70;1.58;;;;;;;;;;5096803;28;20546;-60
2022/04/20 15:00:13;;;;;;;1.80;1.73;;;;;;;;;;5097624;28;20276;-60
2022/04/20 15:02:41;;;;;;;3.70;1.58;;;;;;;;;;5097619;28;20375;-60
2022/04/20 15:05:09;;;;;;;3.42;1.73;;;;;;;;;;5097209;28;20265;-60
2022/04/20 15:07:35;;;;;;;4.72;1.80;;;;;;;;;;5096639;28;20411;-60
2022/04/20 15:10:02;;;;;;;3.30;1.65;;;;;;;;;;5097555;28;20539;-61
2022/04/20 15:12:29;;;;;;;2.30;2.00;;;;;;;;;;5096756;28;20211;-60
2022/04/20 15:14:59;;;;;;;5.05;1.83;;;;;;;;;;5097167;28;20214;-61
2022/04/20 15:17:27;;;;;;;2.70;1.75;;;;;;;;;;5096187;28;20208;-61
2022/04/20 15:19:53;;;;;;;3.55;2.05;;;;;;;;;;5096589;28;20226;-60
2022/04/20 15:22:21;;;;;;;2.38;1.90;;;;;;;;;;5095634;28;20286;-60
2022/04/20 15:24:49;;;;;;;3.25;1.63;;;;;;;;;;5096477;28;20207;-60
2022/04/20 15:27:15;;;;;;;1.70;1.65;;;;;;;;;;5095574;28;20295;-61
2022/04/20 15:29:42;;;;;;;3.28;1.88;;;;;;;;;;5096542;28;20212;-60
2022/04/20 15:32:09;;;;;;;3.08;2.50;;;;;;;;;;5096042;28;20250;-60
2022/04/20 15:34:35;;;;;;;3.08;2.35;;;;;;;;;;5096759;28;20541;-60
2022/04/20 15:37:05;;;;;;;3.95;2.35;;;;;;;;;;5096183;28;20199;-59